createdAt,value
2017-12-12T00:00:07.470Z,1.07
2017-12-12T00:02:35.706Z,0.90
2017-12-12T00:05:04.422Z,0.90
2017-12-12T00:07:32.654Z,1.00
2017-12-12T00:10:02.090Z,1.00
2017-12-12T00:12:30.486Z,1.00
2017-12-12T00:14:58.723Z,3.70
2017-12-12T00:17:26.959Z,1.00
2017-12-12T00:19:55.989Z,4.53
2017-12-12T00:22:35.834Z,0.83
2017-12-12T00:25:04.427Z,0.97
2017-12-12T00:27:32.654Z,1.07
2017-12-12T00:30:00.894Z,1.20
2017-12-12T00:32:29.153Z,1.13
2017-12-12T00:34:57.386Z,0.80
2017-12-12T00:37:25.622Z,2.30
2017-12-12T00:39:53.873Z,0.97
2017-12-12T00:42:22.114Z,2.80
2017-12-12T00:44:51.117Z,0.90
2017-12-12T00:47:20.229Z,0.80
2017-12-12T00:49:48.470Z,0.80
2017-12-12T00:52:16.711Z,1.20
2017-12-12T00:54:44.965Z,0.87
2017-12-12T00:57:13.198Z,0.70
2017-12-12T00:59:41.435Z,1.73
2017-12-12T01:02:09.690Z,0.90
2017-12-12T01:04:37.927Z,1.00
2017-12-12T01:07:06.197Z,0.83
2017-12-12T01:09:34.573Z,1.53
2017-12-12T01:12:02.759Z,1.00
2017-12-12T01:14:30.990Z,0.80
2017-12-12T01:16:59.253Z,1.87
2017-12-12T01:19:27.498Z,0.90
2017-12-12T01:21:57.676Z,0.80
2017-12-12T01:24:25.933Z,0.80
2017-12-12T01:26:54.166Z,0.90
2017-12-12T01:29:23.166Z,0.87
2017-12-12T01:31:52.321Z,0.73
2017-12-12T01:34:20.558Z,1.10
2017-12-12T01:36:48.799Z,1.33
2017-12-12T01:39:17.054Z,1.13
2017-12-12T01:41:45.294Z,0.90
2017-12-12T01:44:13.529Z,0.90
2017-12-12T01:46:41.792Z,1.17
2017-12-12T01:49:10.190Z,1.77
2017-12-12T01:51:38.417Z,1.00
2017-12-12T01:54:06.998Z,1.73
2017-12-12T01:56:35.255Z,1.10
2017-12-12T01:59:03.497Z,1.10
2017-12-12T02:01:31.764Z,1.17
2017-12-12T02:03:59.993Z,1.10
2017-12-12T02:06:28.226Z,0.90
2017-12-12T02:08:56.477Z,0.80
2017-12-12T02:11:24.710Z,1.10
2017-12-12T02:13:52.943Z,0.90
2017-12-12T02:16:21.790Z,0.90
2017-12-12T02:18:50.030Z,1.80
2017-12-12T02:21:18.470Z,0.80
2017-12-12T02:23:46.746Z,1.43
2017-12-12T02:26:16.151Z,0.90
2017-12-12T02:28:44.381Z,0.90
2017-12-12T02:31:12.638Z,1.30
2017-12-12T02:33:41.646Z,1.10
2017-12-12T02:36:10.644Z,1.80
2017-12-12T02:38:39.354Z,1.20
2017-12-12T02:41:07.590Z,1.17
2017-12-12T02:43:35.830Z,1.27
2017-12-12T02:46:04.082Z,1.07
2017-12-12T02:48:32.323Z,1.40
2017-12-12T02:51:01.542Z,1.03
2017-12-12T02:53:29.806Z,1.00
2017-12-12T02:55:58.235Z,1.00
2017-12-12T02:58:26.470Z,0.80
2017-12-12T03:00:54.878Z,0.90
2017-12-12T03:03:23.106Z,0.80
2017-12-12T03:05:52.111Z,0.90
2017-12-12T03:08:21.138Z,0.83
2017-12-12T03:10:50.353Z,0.80
2017-12-12T03:13:18.731Z,0.80
2017-12-12T03:15:46.990Z,0.83
2017-12-12T03:18:15.227Z,0.73
2017-12-12T03:20:44.232Z,1.10
2017-12-12T03:23:13.307Z,0.83
2017-12-12T03:25:41.549Z,0.90
2017-12-12T03:28:09.788Z,1.00
2017-12-12T03:30:38.039Z,0.90
2017-12-12T03:33:07.038Z,0.90
2017-12-12T03:35:37.217Z,0.90
2017-12-12T03:38:05.475Z,0.80
2017-12-12T03:40:33.717Z,0.90
2017-12-12T03:43:02.970Z,4.83
2017-12-12T03:45:31.311Z,1.07
2017-12-12T03:47:59.541Z,1.00
2017-12-12T03:50:27.801Z,1.00
2017-12-12T03:52:56.238Z,0.80
2017-12-12T03:55:25.238Z,0.87
2017-12-12T03:57:53.474Z,3.17
2017-12-12T04:00:21.830Z,0.90
2017-12-12T04:02:50.042Z,0.80
2017-12-12T04:05:19.197Z,1.10
2017-12-12T04:07:47.767Z,1.50
2017-12-12T04:10:16.061Z,1.23
2017-12-12T04:12:44.444Z,1.83
2017-12-12T04:15:12.813Z,1.10
2017-12-12T04:17:41.045Z,1.20
2017-12-12T04:20:09.277Z,1.27
2017-12-12T04:22:37.550Z,1.20
2017-12-12T04:25:05.782Z,1.20
2017-12-12T04:27:36.867Z,1.40
2017-12-12T04:30:05.181Z,1.40
2017-12-12T04:32:33.416Z,1.50
2017-12-12T04:35:01.658Z,1.40
2017-12-12T04:37:29.909Z,1.43
2017-12-12T04:39:59.070Z,1.63
2017-12-12T04:42:27.310Z,1.50
2017-12-12T04:44:55.565Z,1.50
2017-12-12T04:47:24.569Z,1.53
2017-12-12T04:49:53.574Z,1.77
2017-12-12T04:52:21.887Z,1.47
2017-12-12T04:54:50.313Z,1.80
2017-12-12T04:57:19.309Z,1.80
2017-12-12T04:59:48.329Z,3.53
2017-12-12T05:02:16.565Z,2.10
2017-12-12T05:04:44.803Z,5.03
2017-12-12T05:07:13.058Z,2.00
2017-12-12T05:09:41.466Z,1.53
2017-12-12T05:12:09.698Z,1.80
2017-12-12T05:14:38.305Z,1.83
2017-12-12T05:17:06.538Z,2.40
2017-12-12T05:19:34.778Z,2.07
2017-12-12T05:22:03.048Z,1.87
2017-12-12T05:24:31.428Z,1.97
2017-12-12T05:26:59.657Z,1.90
2017-12-12T05:29:28.702Z,2.03
2017-12-12T05:31:56.917Z,1.77
2017-12-12T05:34:25.918Z,2.00
2017-12-12T05:36:56.178Z,1.90
2017-12-12T05:39:24.401Z,1.80
2017-12-12T05:41:52.854Z,1.87
2017-12-12T05:44:21.110Z,2.07
2017-12-12T05:46:49.345Z,1.90
2017-12-12T05:49:18.349Z,1.53
2017-12-12T05:51:47.374Z,2.50
2017-12-12T05:54:15.650Z,1.83
2017-12-12T05:56:44.110Z,2.10
2017-12-12T05:59:12.496Z,2.37
2017-12-12T06:01:40.738Z,2.50
2017-12-12T06:04:08.969Z,2.47
2017-12-12T06:06:37.283Z,2.70
2017-12-12T06:09:05.533Z,2.10
2017-12-12T06:11:33.757Z,2.93
2017-12-12T06:14:02.795Z,2.53
2017-12-12T06:16:31.026Z,2.40
2017-12-12T06:18:59.359Z,2.57
2017-12-12T06:21:27.645Z,2.60
2017-12-12T06:23:55.914Z,4.40
2017-12-12T06:26:24.145Z,2.50
2017-12-12T06:28:52.433Z,2.00
2017-12-12T06:31:20.674Z,2.50
2017-12-12T06:33:48.908Z,2.57
2017-12-12T06:36:17.399Z,2.57
2017-12-12T06:38:45.616Z,2.93
2017-12-12T06:41:14.614Z,2.20
2017-12-12T06:43:43.705Z,2.87
2017-12-12T06:46:12.697Z,2.67
2017-12-12T06:48:41.697Z,3.77
2017-12-12T06:51:10.725Z,2.50
2017-12-12T06:53:38.957Z,3.07
2017-12-12T06:56:07.958Z,3.33
2017-12-12T06:58:37.158Z,3.27
2017-12-12T07:01:05.389Z,3.50
2017-12-12T07:03:33.630Z,2.97
2017-12-12T07:06:02.195Z,8.23
2017-12-12T07:08:30.382Z,3.43
2017-12-12T07:10:58.822Z,3.83
2017-12-12T07:13:27.080Z,3.30
2017-12-12T07:15:55.314Z,3.40
2017-12-12T07:18:23.542Z,4.20
2017-12-12T07:20:52.097Z,3.80
2017-12-12T07:23:20.330Z,3.07
2017-12-12T07:25:48.771Z,2.77
2017-12-12T07:28:17.078Z,3.27
2017-12-12T07:52:17.219Z,2.47
2017-12-12T07:54:45.434Z,3.63
2017-12-12T07:57:14.591Z,3.57
2017-12-12T07:59:43.129Z,3.50
2017-12-12T08:02:11.363Z,5.40
2017-12-12T08:04:39.626Z,4.80
2017-12-12T08:07:08.080Z,5.20
2017-12-12T08:09:36.299Z,4.20
2017-12-12T08:12:06.506Z,3.40
2017-12-12T08:14:34.874Z,3.37
2017-12-12T08:17:03.110Z,3.70
2017-12-12T08:19:31.350Z,2.73
2017-12-12T08:21:59.876Z,3.83
2017-12-12T08:24:28.857Z,3.33
2017-12-12T08:26:58.965Z,2.67
2017-12-12T08:29:27.195Z,5.27
2017-12-12T08:31:55.430Z,3.00
2017-12-12T08:34:24.434Z,3.20
2017-12-12T08:36:52.835Z,2.50
2017-12-12T08:39:21.071Z,2.90
2017-12-12T08:41:49.310Z,2.97
2017-12-12T08:44:17.566Z,3.20
2017-12-12T08:46:45.803Z,2.70
2017-12-12T08:49:14.810Z,2.90
2017-12-12T08:51:43.074Z,2.60
2017-12-12T08:54:12.082Z,3.10
2017-12-12T08:56:41.087Z,2.47
2017-12-12T08:59:09.406Z,2.50
2017-12-12T09:01:38.123Z,2.67
2017-12-12T09:04:07.123Z,2.53
2017-12-12T09:06:36.403Z,2.77
2017-12-12T09:09:04.645Z,3.60
2017-12-12T09:11:33.035Z,3.17
2017-12-12T09:14:01.275Z,2.00
2017-12-12T09:16:29.519Z,3.30
2017-12-12T09:18:57.768Z,2.80
2017-12-12T09:21:26.187Z,2.03
2017-12-12T09:23:54.427Z,4.10
2017-12-12T09:26:22.803Z,2.07
2017-12-12T09:28:51.070Z,2.90
2017-12-12T09:31:19.306Z,2.60
2017-12-12T09:33:47.550Z,2.83
2017-12-12T09:36:16.029Z,3.27
2017-12-12T09:38:44.284Z,4.33
2017-12-12T09:41:12.502Z,3.53
2017-12-12T09:43:41.849Z,5.97
2017-12-12T09:46:10.082Z,1.97
2017-12-12T09:48:38.319Z,2.80
2017-12-12T09:51:06.592Z,2.30
2017-12-12T09:53:34.822Z,2.27
2017-12-12T09:56:04.278Z,13.43
2017-12-12T09:58:32.543Z,2.57
2017-12-12T10:01:01.543Z,2.43
2017-12-12T10:03:30.067Z,2.13
2017-12-12T10:05:59.760Z,4.07
2017-12-12T10:08:28.010Z,2.40
2017-12-12T10:10:56.395Z,7.53
2017-12-12T10:13:24.659Z,4.03
2017-12-12T10:15:54.070Z,2.70
2017-12-12T10:18:22.346Z,1.93
2017-12-12T10:20:51.783Z,2.80
2017-12-12T10:23:20.030Z,2.00
2017-12-12T10:25:48.262Z,2.60
2017-12-12T10:28:17.345Z,3.80
2017-12-12T10:30:46.492Z,3.57
2017-12-12T10:33:14.938Z,3.33
2017-12-12T10:35:43.281Z,4.20
2017-12-12T10:38:15.627Z,3.67
2017-12-12T10:40:44.210Z,2.27
2017-12-12T10:43:12.431Z,2.00
2017-12-12T10:45:42.610Z,2.40
2017-12-12T10:48:11.075Z,2.30
2017-12-12T10:50:40.303Z,2.90
2017-12-12T10:53:09.792Z,8.53
2017-12-12T10:55:38.034Z,4.50
2017-12-12T10:58:06.275Z,2.27
2017-12-12T11:00:34.514Z,2.10
2017-12-12T11:03:04.982Z,4.43
2017-12-12T11:05:33.944Z,2.43
2017-12-12T11:08:02.331Z,2.63
2017-12-12T11:10:30.906Z,2.17
2017-12-12T11:12:59.282Z,4.53
2017-12-12T11:15:28.735Z,2.50
2017-12-12T11:17:58.955Z,3.13
2017-12-12T11:20:27.964Z,3.07
2017-12-12T11:22:57.077Z,7.03
2017-12-12T11:25:25.339Z,2.60
2017-12-12T11:27:53.662Z,2.80
2017-12-12T11:30:22.044Z,2.40
2017-12-12T11:32:50.509Z,4.70
2017-12-12T11:35:19.920Z,1.90
2017-12-12T11:37:48.134Z,1.47
2017-12-12T11:40:17.204Z,4.90
2017-12-12T11:42:45.433Z,2.50
2017-12-12T11:45:13.846Z,1.80
2017-12-12T11:47:42.255Z,2.57
2017-12-12T11:50:10.809Z,2.10
2017-12-12T11:52:39.186Z,3.00
2017-12-12T11:55:07.754Z,1.77
2017-12-12T11:57:35.990Z,1.70
2017-12-12T12:00:04.428Z,1.70
2017-12-12T12:02:32.838Z,2.90
2017-12-12T12:05:01.195Z,2.37
2017-12-12T12:07:29.770Z,2.20
2017-12-12T12:09:58.015Z,2.10
2017-12-12T12:12:26.330Z,1.90
2017-12-12T12:14:54.566Z,2.87
2017-12-12T12:17:23.014Z,5.30
2017-12-12T12:19:51.494Z,2.13
2017-12-12T12:22:23.870Z,2.37
2017-12-12T12:24:52.875Z,1.87
2017-12-12T12:27:21.901Z,2.20
2017-12-12T12:29:50.239Z,1.33
2017-12-12T12:32:19.510Z,2.17
2017-12-12T12:34:47.887Z,4.40
2017-12-12T12:37:16.439Z,3.40
2017-12-12T12:39:44.683Z,2.40
2017-12-12T12:42:13.694Z,1.90
2017-12-12T12:44:48.006Z,1.80
2017-12-12T12:47:16.247Z,2.07
2017-12-12T12:49:44.490Z,2.30
2017-12-12T12:52:12.750Z,4.57
2017-12-12T12:54:41.370Z,2.23
2017-12-12T12:57:09.754Z,2.20
2017-12-12T12:59:38.220Z,4.00
2017-12-12T13:02:06.713Z,1.93
2017-12-12T13:04:34.939Z,2.50
2017-12-12T13:07:09.730Z,2.33
2017-12-12T13:09:38.301Z,2.63
2017-12-12T13:12:06.518Z,8.70
2017-12-12T13:14:35.826Z,2.57
2017-12-12T13:17:04.151Z,3.00
2017-12-12T13:19:32.530Z,1.67
2017-12-12T13:22:00.978Z,2.60
2017-12-12T13:24:29.300Z,2.67
2017-12-12T13:26:57.856Z,1.70
2017-12-12T13:29:27.323Z,3.03
2017-12-12T13:31:56.334Z,2.17
2017-12-12T13:34:24.658Z,1.90
2017-12-12T13:36:53.071Z,2.30
2017-12-12T13:39:23.263Z,1.90
2017-12-12T13:41:51.635Z,3.63
2017-12-12T13:44:20.087Z,2.90
2017-12-12T13:46:49.515Z,5.90
2017-12-12T13:49:17.893Z,6.57
2017-12-12T13:51:47.326Z,2.90
2017-12-12T13:54:15.568Z,1.87
2017-12-12T13:56:43.801Z,1.70
2017-12-12T13:59:13.114Z,1.97
2017-12-12T14:01:43.586Z,2.83
2017-12-12T14:04:11.972Z,2.10
2017-12-12T14:06:41.434Z,2.97
2017-12-12T14:09:09.680Z,3.20
2017-12-12T14:11:38.946Z,2.40
2017-12-12T14:14:07.363Z,2.40
2017-12-12T14:16:37.546Z,2.03
2017-12-12T14:19:05.919Z,1.80
2017-12-12T14:21:35.251Z,1.70
2017-12-12T14:24:03.493Z,7.63
2017-12-12T14:26:33.866Z,2.57
2017-12-12T14:29:03.210Z,2.03
2017-12-12T14:31:31.706Z,7.30
2017-12-12T14:34:00.200Z,2.00
2017-12-12T14:36:28.589Z,5.23
2017-12-12T14:38:57.882Z,2.20
2017-12-12T14:41:26.247Z,2.10
2017-12-12T14:43:54.538Z,1.90
2017-12-12T14:46:25.052Z,4.93
2017-12-12T14:48:53.609Z,2.30
2017-12-12T14:51:22.078Z,1.40
2017-12-12T14:53:51.570Z,1.30
2017-12-12T14:56:20.589Z,1.67
2017-12-12T14:58:49.927Z,2.00
2017-12-12T15:01:18.219Z,2.83
2017-12-12T15:03:46.780Z,2.73
2017-12-12T15:06:16.219Z,1.63
2017-12-12T15:08:46.482Z,2.13
2017-12-12T15:11:16.015Z,1.67
2017-12-12T15:13:44.508Z,1.97
2017-12-12T15:16:15.125Z,3.53
2017-12-12T15:18:44.530Z,4.33
2017-12-12T15:21:12.786Z,3.53
2017-12-12T15:23:41.184Z,4.13
2017-12-12T15:26:09.702Z,2.33
2017-12-12T15:28:38.754Z,2.70
2017-12-12T15:31:07.246Z,5.23
2017-12-12T15:33:35.459Z,3.40
2017-12-12T15:36:04.816Z,3.10
2017-12-12T15:38:33.051Z,2.83
2017-12-12T15:41:01.299Z,3.17
2017-12-12T15:43:29.574Z,2.53
2017-12-12T15:45:57.796Z,2.67
2017-12-12T15:48:26.035Z,3.43
2017-12-12T15:50:54.298Z,2.13
2017-12-12T15:53:22.758Z,2.53
2017-12-12T15:55:51.147Z,2.93
2017-12-12T15:58:19.490Z,2.10
2017-12-12T16:00:48.506Z,2.00
2017-12-12T16:03:17.402Z,2.13
2017-12-12T16:05:45.647Z,2.10
2017-12-12T16:08:13.887Z,2.53
2017-12-12T16:10:42.342Z,2.20
2017-12-12T16:13:11.694Z,2.30
2017-12-12T16:15:44.636Z,2.50
2017-12-12T16:18:13.211Z,2.37
2017-12-12T16:20:41.430Z,2.60
2017-12-12T16:23:10.690Z,2.50
2017-12-12T16:25:40.195Z,2.40
2017-12-12T16:28:08.446Z,2.43
2017-12-12T16:30:36.767Z,3.73
2017-12-12T16:33:06.248Z,2.53
2017-12-12T16:35:34.544Z,2.30
2017-12-12T16:38:02.925Z,4.63
2017-12-12T16:40:32.190Z,5.80
2017-12-12T16:43:00.482Z,2.10
2017-12-12T16:45:29.065Z,5.40
2017-12-12T16:47:57.444Z,4.87
2017-12-12T16:50:29.938Z,3.27
2017-12-12T16:52:58.346Z,5.13
2017-12-12T16:55:27.399Z,5.80
2017-12-12T16:57:55.693Z,4.53
2017-12-12T17:00:24.260Z,5.60
2017-12-12T17:02:53.659Z,6.10
2017-12-12T17:05:22.241Z,2.83
2017-12-12T17:07:50.517Z,3.30
2017-12-12T17:10:18.795Z,3.10
2017-12-12T17:12:47.483Z,2.33
2017-12-12T17:15:15.949Z,3.43
2017-12-12T17:17:44.170Z,3.20
2017-12-12T17:20:12.522Z,6.30
2017-12-12T17:22:41.088Z,3.47
2017-12-12T17:25:09.893Z,3.73
2017-12-12T17:27:38.114Z,5.20
2017-12-12T17:30:07.264Z,3.63
2017-12-12T17:32:35.483Z,7.90
2017-12-12T17:35:05.671Z,4.40
2017-12-12T17:37:34.244Z,6.43
2017-12-12T17:40:02.479Z,3.97
2017-12-12T17:42:32.987Z,3.50
2017-12-12T17:45:03.277Z,4.07
2017-12-12T17:47:31.566Z,3.77
2017-12-12T17:49:59.802Z,3.17
2017-12-12T17:52:28.066Z,4.80
2017-12-12T17:54:56.310Z,3.47
2017-12-12T17:57:24.771Z,5.00
2017-12-12T17:59:53.199Z,6.67
2017-12-12T18:02:21.537Z,6.33
2017-12-12T18:04:49.909Z,4.37
2017-12-12T18:07:18.386Z,6.00
2017-12-12T18:09:46.777Z,5.43
2017-12-12T18:12:17.215Z,4.73
2017-12-12T18:14:45.664Z,9.67
2017-12-12T18:17:16.106Z,7.57
2017-12-12T18:19:44.677Z,6.93
2017-12-12T18:22:14.273Z,5.23
2017-12-12T18:24:45.633Z,7.73
2017-12-12T18:27:16.162Z,6.80
2017-12-12T18:29:44.459Z,5.17
2017-12-12T18:32:14.260Z,5.10
2017-12-12T18:34:42.535Z,7.90
2017-12-12T18:37:11.038Z,4.30
2017-12-12T18:39:39.354Z,5.47
2017-12-12T18:42:08.680Z,4.80
2017-12-12T18:44:36.906Z,8.90
2017-12-12T18:47:07.099Z,6.63
2017-12-12T18:49:41.076Z,7.70
2017-12-12T18:52:13.980Z,4.33
2017-12-12T18:54:44.067Z,9.17
2017-12-12T18:57:12.333Z,5.60
2017-12-12T18:59:41.326Z,5.17
2017-12-12T19:05:09.448Z,3.30
2017-12-12T19:07:37.743Z,6.70
2017-12-12T19:10:06.119Z,4.70
2017-12-12T19:12:34.397Z,5.97
2017-12-12T19:15:05.031Z,6.77
2017-12-12T19:17:33.274Z,6.90
2017-12-12T19:20:01.546Z,5.67
2017-12-12T19:22:29.782Z,6.03
2017-12-12T19:24:58.018Z,3.60
2017-12-12T19:27:26.706Z,9.07
2017-12-12T19:29:54.942Z,7.60
2017-12-12T19:32:23.179Z,8.10
2017-12-12T19:34:51.438Z,7.07
2017-12-12T19:37:19.683Z,4.50
2017-12-12T19:39:47.918Z,10.60
2017-12-12T19:42:16.184Z,8.40
2017-12-12T19:44:44.419Z,5.67
2017-12-12T19:47:12.654Z,4.63
2017-12-12T19:49:41.502Z,5.90
2017-12-12T19:52:09.742Z,3.00
2017-12-12T19:54:37.978Z,4.00
2017-12-12T19:57:06.248Z,6.77
2017-12-12T19:59:34.475Z,5.03
2017-12-12T20:02:02.710Z,8.00
2017-12-12T20:04:31.110Z,4.47
2017-12-12T20:06:59.357Z,4.20
2017-12-12T20:09:28.350Z,6.60
2017-12-12T20:11:56.966Z,5.43
2017-12-12T20:14:25.971Z,6.30
2017-12-12T20:16:55.163Z,3.00
2017-12-12T20:19:23.551Z,10.33
2017-12-12T20:21:52.704Z,4.27
2017-12-12T20:24:21.080Z,9.20
2017-12-12T20:26:49.325Z,4.47
2017-12-12T20:29:17.562Z,3.60
2017-12-12T20:31:46.014Z,3.87
2017-12-12T20:34:14.786Z,4.10
2017-12-12T20:36:43.022Z,4.90
2017-12-12T20:39:11.262Z,5.13
2017-12-12T20:41:39.529Z,4.80
2017-12-12T20:44:07.774Z,6.43
2017-12-12T20:46:36.025Z,9.67
2017-12-12T20:49:04.386Z,6.30
2017-12-12T20:51:32.626Z,10.00
2017-12-12T20:54:00.875Z,11.50
2017-12-12T20:56:29.539Z,6.90
2017-12-12T20:58:58.696Z,6.60
2017-12-12T21:01:26.918Z,5.20
2017-12-12T21:03:57.118Z,8.30
2017-12-12T21:06:25.354Z,6.83
2017-12-12T21:08:53.594Z,10.90
2017-12-12T21:11:22.631Z,9.80
2017-12-12T21:13:50.862Z,7.67
2017-12-12T21:16:19.113Z,9.00
2017-12-12T21:18:47.880Z,5.40
2017-12-12T21:21:16.098Z,6.07
2017-12-12T21:23:45.103Z,6.07
2017-12-12T21:26:13.365Z,6.40
2017-12-12T21:28:41.602Z,5.07
2017-12-12T21:31:09.843Z,8.13
2017-12-12T21:33:38.106Z,8.17
2017-12-12T21:36:06.346Z,9.10
2017-12-12T21:38:34.590Z,6.03
2017-12-12T21:41:03.130Z,5.83
2017-12-12T21:43:32.398Z,6.53
2017-12-12T21:46:00.633Z,4.90
2017-12-12T21:48:28.894Z,4.37
2017-12-12T21:50:57.899Z,10.67
2017-12-12T21:53:26.139Z,5.37
2017-12-12T21:55:54.617Z,7.20
2017-12-12T21:58:22.861Z,8.40
2017-12-12T22:00:51.089Z,5.50
2017-12-12T22:03:20.174Z,4.37
2017-12-12T22:05:48.415Z,5.00
2017-12-12T22:08:16.655Z,6.67
2017-12-12T22:10:44.915Z,5.53
2017-12-12T22:13:13.924Z,7.87
2017-12-12T22:15:42.158Z,5.17
2017-12-12T22:18:10.427Z,4.40
2017-12-12T22:20:39.062Z,6.80
2017-12-12T22:23:07.298Z,4.30
2017-12-12T22:25:35.890Z,4.20
2017-12-12T22:28:04.522Z,5.57
2017-12-12T22:30:32.746Z,5.40
2017-12-12T22:33:01.006Z,5.33
2017-12-12T22:35:29.242Z,5.40
2017-12-12T22:37:57.654Z,8.93
2017-12-12T22:40:25.915Z,5.13
2017-12-12T22:42:54.149Z,4.97
2017-12-12T22:45:23.158Z,4.30
2017-12-12T22:47:51.578Z,3.90
2017-12-12T22:50:19.814Z,5.50
2017-12-12T22:52:48.235Z,4.50
2017-12-12T22:55:16.496Z,5.13
2017-12-12T22:57:44.730Z,5.73
2017-12-12T23:00:20.471Z,3.90
2017-12-12T23:02:48.817Z,4.60
2017-12-12T23:05:17.049Z,4.33
2017-12-12T23:07:45.498Z,4.27
2017-12-12T23:10:13.955Z,5.53
2017-12-12T23:12:42.194Z,6.50
2017-12-12T23:15:10.454Z,4.17
2017-12-12T23:17:39.474Z,5.37
2017-12-12T23:20:07.710Z,7.57
2017-12-12T23:22:36.275Z,11.27
2017-12-12T23:25:04.506Z,5.87
2017-12-12T23:27:32.746Z,9.40
2017-12-12T23:30:01.254Z,4.83
2017-12-12T23:32:29.506Z,4.80
2017-12-12T23:34:57.763Z,6.37
2017-12-12T23:37:26.024Z,5.40
2017-12-12T23:39:55.027Z,6.40
2017-12-12T23:42:23.262Z,6.70
2017-12-12T23:44:51.523Z,4.93
2017-12-12T23:47:19.759Z,7.33
2017-12-12T23:49:48.026Z,5.97
2017-12-12T23:52:16.366Z,11.37
2017-12-12T23:54:44.619Z,7.90
2017-12-12T23:57:13.623Z,5.03
2017-12-12T23:59:41.882Z,5.27
